Kezdőlap
METAR-TAF:

METAR-TAF

Repülőterek :

Treviso, Olaszország

földrajzi szélesség: 45-39N, földrajzi hosszúság: 012-11E, magasság: 18 m

Jelenlegi meteorológiai megfigyelések

A jelentés 26 perccel ezelõtt készült, 09:20 UTC
Északi szél 4 kt, észak-északnyugati és észak-északkeleti között változik
Hőmérséklet 6°C
Páratartalom 49%
Légköri nyomás 1042 hPa
Látótávolság 10 km, vagy több
felhőtlen 1500 m magasságban, és nincs gomolyfelhõ

METAR: LIPH 200920Z 36004KT 330V030 CAVOK 06/M04 Q1042

Idő: 10:46 (09:46 UTC)

Előrejelzés

A jelentés 4 órával és 46 perccel ezelõtt készült, 05:00 UTC
Az előrejelzés 20-én 06 óra UTC és 21-én 06 óra UTC között érvényes
Északkeleti szél 7 kt
Látótávolság 10 km, vagy több
felhőtlen 1500 m magasságban, és nincs gomolyfelhõ

TAF: LIPH 200500Z 2006/2106 04007KT CAVOK

Meteorológiai megfigyelések és előrejelzések több, mint 4000 repülőtéren (METAR és TAF jelentéseket).

A térképen piros és sárga pontok jelzik az elérhető meteorológiai állomásokat.

Mozgassa az egeret a pont fölött, hogy megjelenjen az állomás neve.

Azután kattintson az időjárási megfigyelések és előrejelzések megtekintéséhez.

A térkép megváltoztatása: kattintson a fekete keresztel jelölt zöld gombra ráközelítéshez, a vonallal jelölt zöld gombra távolításhoz, vagy a zöld nyilakra a szomszédos térképek eléréséhez.


METAR-TAF: